createdAt,value
2018-06-15T00:01:09.315Z,12.83
2018-06-15T00:03:40.313Z,13.10
2018-06-15T00:06:11.424Z,12.87
2018-06-15T00:08:42.605Z,14.00
2018-06-15T00:11:13.671Z,12.77
2018-06-15T00:13:45.300Z,13.00
2018-06-15T00:16:16.391Z,13.33
2018-06-15T00:18:50.210Z,12.30
2018-06-15T00:21:21.365Z,12.30
2018-06-15T00:23:52.538Z,13.37
2018-06-15T00:26:24.277Z,13.00
2018-06-15T00:28:55.262Z,13.80
2018-06-15T00:31:26.268Z,14.03
2018-06-15T00:33:57.699Z,13.00
2018-06-15T00:36:28.937Z,13.53
2018-06-15T00:39:00.073Z,13.30
2018-06-15T00:41:31.234Z,13.63
2018-06-15T00:44:03.817Z,13.70
2018-06-15T00:46:34.973Z,12.97
2018-06-15T00:49:07.028Z,12.93
2018-06-15T00:51:38.234Z,13.73
2018-06-15T00:54:09.222Z,13.30
2018-06-15T00:56:50.692Z,13.87
2018-06-15T00:59:22.461Z,14.10
2018-06-15T01:01:53.614Z,12.37
2018-06-15T01:04:24.675Z,14.07
2018-06-15T01:06:55.635Z,13.60
2018-06-15T01:09:27.501Z,13.33
2018-06-15T01:11:58.683Z,14.57
2018-06-15T01:14:29.865Z,13.50
2018-06-15T01:17:01.023Z,14.43
2018-06-15T01:19:32.281Z,13.77
2018-06-15T01:22:03.480Z,12.97
2018-06-15T01:24:34.606Z,13.67
2018-06-15T01:27:05.568Z,13.80
2018-06-15T01:29:36.706Z,14.77
2018-06-15T01:32:07.644Z,13.80
2018-06-15T01:34:38.726Z,13.97
2018-06-15T01:37:10.475Z,16.27
2018-06-15T01:39:42.375Z,13.50
2018-06-15T01:42:13.435Z,14.00
2018-06-15T01:44:45.607Z,14.17
2018-06-15T01:47:16.560Z,14.47
2018-06-15T01:49:47.522Z,14.80
2018-06-15T01:52:18.432Z,14.10
2018-06-15T01:54:49.400Z,14.00
2018-06-15T01:57:21.125Z,13.30
2018-06-15T01:59:53.021Z,13.70
2018-06-15T02:02:24.021Z,13.97
2018-06-15T02:04:55.107Z,13.47
2018-06-15T02:07:26.059Z,14.07
2018-06-15T02:09:57.917Z,13.77
2018-06-15T02:12:28.941Z,14.40
2018-06-15T02:14:59.904Z,15.37
2018-06-15T02:17:31.006Z,14.20
2018-06-15T02:20:02.960Z,14.07
2018-06-15T02:22:34.120Z,15.13
2018-06-15T02:25:07.174Z,14.60
2018-06-15T02:27:39.015Z,15.17
2018-06-15T02:30:10.959Z,15.10
2018-06-15T02:32:42.310Z,16.07
2018-06-15T02:35:13.862Z,15.20
2018-06-15T02:37:49.454Z,16.57
2018-06-15T02:40:20.690Z,14.87
2018-06-15T02:42:51.792Z,13.00
2018-06-15T02:45:24.713Z,15.70
2018-06-15T02:47:56.642Z,14.70
2018-06-15T02:50:27.697Z,14.33
2018-06-15T02:52:58.924Z,13.33
2018-06-15T02:55:30.134Z,14.00
2018-06-15T02:58:01.654Z,12.27
2018-06-15T03:00:32.694Z,11.27
2018-06-15T03:03:04.908Z,11.47
2018-06-15T03:05:36.825Z,11.23
2018-06-15T03:08:07.731Z,11.07
2018-06-15T03:10:38.784Z,9.00
2018-06-15T03:13:10.905Z,9.37
2018-06-15T03:15:42.782Z,8.20
2018-06-15T03:18:13.805Z,7.70
2018-06-15T03:20:44.798Z,10.00
2018-06-15T03:23:16.137Z,15.00
2018-06-15T03:25:47.311Z,7.90
2018-06-15T03:28:18.730Z,6.30
2018-06-15T03:30:49.701Z,7.30
2018-06-15T03:33:22.218Z,7.70
2018-06-15T03:35:53.415Z,7.03
2018-06-15T03:38:24.330Z,6.60
2018-06-15T03:40:55.595Z,6.30
2018-06-15T03:43:26.715Z,6.17
2018-06-15T03:45:57.632Z,6.40
2018-06-15T03:48:28.479Z,5.63
2018-06-15T03:51:00.378Z,6.03
2018-06-15T03:53:32.431Z,5.37
2018-06-15T03:56:03.589Z,5.90
2018-06-15T03:58:35.455Z,6.20
2018-06-15T04:01:07.186Z,5.90
2018-06-15T04:03:38.410Z,6.23
2018-06-15T04:06:10.470Z,5.70
2018-06-15T04:08:42.011Z,5.90
2018-06-15T04:11:13.932Z,6.30
2018-06-15T04:13:45.205Z,6.60
2018-06-15T04:16:16.274Z,8.00
2018-06-15T04:18:47.239Z,6.30
2018-06-15T04:21:18.270Z,6.73
2018-06-15T04:23:49.374Z,6.57
2018-06-15T04:26:20.485Z,6.30
2018-06-15T04:28:51.514Z,6.23
2018-06-15T04:31:23.288Z,8.30
2018-06-15T04:33:54.488Z,12.23
2018-06-15T04:36:25.602Z,11.67
2018-06-15T04:38:56.695Z,11.60
2018-06-15T04:41:28.970Z,12.97
2018-06-15T04:44:01.248Z,12.87
2018-06-15T04:46:32.994Z,14.17
2018-06-15T04:49:04.384Z,14.30
2018-06-15T04:51:35.283Z,14.50
2018-06-15T04:54:06.332Z,13.90
2018-06-15T04:56:37.513Z,13.00
2018-06-15T04:59:08.509Z,12.63
2018-06-15T05:01:39.697Z,12.53
2018-06-15T05:04:10.733Z,11.20
2018-06-15T05:06:42.002Z,13.57
2018-06-15T05:09:13.938Z,12.00
2018-06-15T05:11:45.467Z,9.93
2018-06-15T05:14:16.491Z,9.00
2018-06-15T05:16:47.885Z,9.40
2018-06-15T05:19:19.190Z,10.23
2018-06-15T05:21:50.377Z,10.33
2018-06-15T05:24:21.480Z,8.80
2018-06-15T05:26:53.552Z,10.77
2018-06-15T05:29:25.837Z,8.80
2018-06-15T05:31:57.235Z,7.30
2018-06-15T05:34:29.675Z,6.10
2018-06-15T05:37:00.809Z,6.90
2018-06-15T05:39:31.850Z,5.83
2018-06-15T05:42:04.841Z,8.07
2018-06-15T05:44:35.979Z,9.17
2018-06-15T05:47:07.907Z,8.83
2018-06-15T05:49:38.929Z,11.43
2018-06-15T05:52:10.082Z,11.97
2018-06-15T05:54:41.174Z,11.83
2018-06-15T05:57:12.150Z,14.90
2018-06-15T05:59:43.290Z,15.83
2018-06-15T06:02:14.999Z,16.10
2018-06-15T06:04:46.032Z,13.97
2018-06-15T06:07:17.220Z,12.37
2018-06-15T06:09:49.005Z,9.30
2018-06-15T06:12:20.723Z,11.70
2018-06-15T06:14:51.834Z,10.00
2018-06-15T06:17:23.023Z,12.03
2018-06-15T06:19:53.943Z,10.93
2018-06-15T06:22:24.857Z,10.23
2018-06-15T06:24:55.910Z,10.28
2018-06-15T06:27:28.224Z,9.70
2018-06-15T06:29:59.328Z,8.85
2018-06-15T06:32:31.317Z,9.03
2018-06-15T06:35:03.832Z,7.78
2018-06-15T06:37:35.109Z,7.20
2018-06-15T06:40:07.115Z,7.20
2018-06-15T06:42:38.319Z,7.80
2018-06-15T06:45:09.335Z,8.23
2018-06-15T06:47:41.254Z,8.33
2018-06-15T06:50:12.759Z,7.80
2018-06-15T06:52:43.831Z,7.33
2018-06-15T06:55:14.925Z,7.40
2018-06-15T06:57:47.584Z,8.00
2018-06-15T07:00:19.562Z,7.45
2018-06-15T07:02:50.816Z,7.00
2018-06-15T07:05:22.026Z,6.67
2018-06-15T07:07:53.262Z,6.03
2018-06-15T07:10:24.286Z,7.17
2018-06-15T07:12:55.490Z,6.40
2018-06-15T07:15:26.729Z,6.15
2018-06-15T07:17:57.566Z,6.30
2018-06-15T07:20:28.139Z,6.05
2018-06-15T07:22:58.838Z,5.28
2018-06-15T07:25:29.674Z,5.67
2018-06-15T07:28:01.636Z,5.72
2018-06-15T07:30:32.660Z,5.00
2018-06-15T07:33:04.547Z,5.87
2018-06-15T07:35:35.156Z,5.53
2018-06-15T07:38:06.226Z,5.35
2018-06-15T07:40:36.955Z,5.53
2018-06-15T07:43:07.785Z,5.72
2018-06-15T07:45:38.387Z,6.08
2018-06-15T07:48:09.917Z,5.33
2018-06-15T07:50:40.940Z,6.08
2018-06-15T07:53:11.961Z,5.72
2018-06-15T07:55:42.864Z,5.65
2018-06-15T07:58:15.688Z,6.20
2018-06-15T08:00:46.495Z,5.95
2018-06-15T08:03:18.970Z,6.33
2018-06-15T08:05:50.145Z,7.63
2018-06-15T08:08:21.392Z,6.33
2018-06-15T08:10:52.884Z,6.90
2018-06-15T08:13:23.806Z,7.33
2018-06-15T08:15:54.763Z,7.20
2018-06-15T08:18:26.550Z,8.30
2018-06-15T08:20:57.475Z,8.20
2018-06-15T08:23:28.898Z,8.20
2018-06-15T08:25:59.792Z,9.10
2018-06-15T08:28:31.908Z,9.70
2018-06-15T08:31:02.957Z,9.93
2018-06-15T08:33:34.873Z,9.10
2018-06-15T08:36:06.072Z,8.93
2018-06-15T08:38:37.382Z,8.90
2018-06-15T08:41:08.568Z,9.53
2018-06-15T08:43:40.467Z,8.97
2018-06-15T08:46:11.730Z,9.90
2018-06-15T08:48:42.836Z,9.30
2018-06-15T08:51:13.721Z,9.30
2018-06-15T08:53:44.711Z,9.13
2018-06-15T08:56:15.653Z,9.27
2018-06-15T08:58:46.848Z,8.70
2018-06-15T09:01:17.822Z,9.20
2018-06-15T09:03:50.667Z,9.10
2018-06-15T09:06:21.898Z,10.00
2018-06-15T09:08:57.086Z,9.43
2018-06-15T09:11:28.242Z,9.37
2018-06-15T09:14:00.131Z,9.30
2018-06-15T09:16:32.117Z,8.63
2018-06-15T09:19:03.302Z,10.20
2018-06-15T09:21:34.421Z,8.20
2018-06-15T09:24:05.517Z,8.37
2018-06-15T09:26:36.556Z,8.33
2018-06-15T09:29:07.900Z,8.63
2018-06-15T09:31:39.053Z,7.97
2018-06-15T09:34:10.734Z,8.60
2018-06-15T09:36:41.821Z,8.10
2018-06-15T09:39:13.265Z,8.03
2018-06-15T09:41:44.378Z,8.10
2018-06-15T09:44:16.445Z,8.63
2018-06-15T09:46:47.642Z,8.07
2018-06-15T09:49:19.537Z,9.30
2018-06-15T09:51:50.779Z,9.13
2018-06-15T09:54:21.865Z,8.93
2018-06-15T09:56:52.933Z,9.43
2018-06-15T09:59:24.587Z,10.20
2018-06-15T10:01:55.697Z,9.80
2018-06-15T10:04:26.861Z,10.80
2018-06-15T10:06:57.750Z,10.13
2018-06-15T10:09:29.067Z,9.50
2018-06-15T10:12:00.850Z,9.60
2018-06-15T10:14:31.800Z,9.20
2018-06-15T10:17:02.995Z,9.03
2018-06-15T10:19:33.958Z,8.13
2018-06-15T10:22:05.111Z,8.27
2018-06-15T10:24:37.053Z,8.80
2018-06-15T10:27:08.140Z,8.23
2018-06-15T10:29:39.152Z,8.90
2018-06-15T10:32:10.214Z,8.87
2018-06-15T10:34:41.406Z,8.97
2018-06-15T10:37:12.524Z,7.97
2018-06-15T10:39:43.789Z,9.33
2018-06-15T10:42:14.778Z,8.70
2018-06-15T10:44:45.748Z,8.57
2018-06-15T10:47:16.825Z,7.70
2018-06-15T10:49:48.841Z,7.80
2018-06-15T10:52:19.893Z,8.67
2018-06-15T10:54:50.961Z,8.50
2018-06-15T10:57:22.052Z,8.17
2018-06-15T10:59:53.800Z,8.30
2018-06-15T11:02:25.191Z,8.10
2018-06-15T11:04:57.742Z,7.53
2018-06-15T11:07:28.718Z,7.60
2018-06-15T11:09:59.948Z,7.50
2018-06-15T11:12:31.035Z,7.60
2018-06-15T11:15:03.291Z,8.83
2018-06-15T11:17:35.028Z,8.73
2018-06-15T11:20:07.035Z,8.10
2018-06-15T11:22:38.397Z,7.80
2018-06-15T11:25:09.645Z,8.40
2018-06-15T11:27:41.106Z,8.10
2018-06-15T11:30:12.172Z,8.30
2018-06-15T11:32:44.083Z,8.30
2018-06-15T11:35:16.352Z,8.20
2018-06-15T11:37:47.505Z,7.97
2018-06-15T11:40:19.551Z,8.37
2018-06-15T11:42:50.750Z,8.83
2018-06-15T11:45:22.642Z,7.60
2018-06-15T11:47:53.653Z,6.97
2018-06-15T11:50:24.741Z,6.93
2018-06-15T11:52:55.896Z,7.20
2018-06-15T11:55:27.022Z,6.97
2018-06-15T11:57:58.114Z,6.90
2018-06-15T12:00:29.136Z,6.50
2018-06-15T12:03:00.469Z,7.27
2018-06-15T12:05:31.649Z,7.13
2018-06-15T12:08:02.756Z,8.20
2018-06-15T12:10:34.088Z,6.80
2018-06-15T12:13:05.275Z,6.20
2018-06-15T12:15:36.807Z,6.60
2018-06-15T12:18:08.057Z,7.37
2018-06-15T12:20:39.936Z,7.23
2018-06-15T12:23:11.014Z,7.13
2018-06-15T12:25:42.331Z,7.00
2018-06-15T12:28:14.510Z,6.37
2018-06-15T12:30:45.869Z,6.40
2018-06-15T12:33:16.987Z,6.57
2018-06-15T12:35:48.504Z,6.83
2018-06-15T12:38:19.877Z,6.73
2018-06-15T12:40:51.047Z,6.50
2018-06-15T12:43:22.000Z,6.10
2018-06-15T12:45:53.975Z,5.93
2018-06-15T12:48:24.974Z,5.50
2018-06-15T12:50:56.767Z,8.67
2018-06-15T12:53:27.877Z,6.50
2018-06-15T12:55:58.988Z,6.10
2018-06-15T12:58:30.589Z,7.20
2018-06-15T13:01:01.651Z,6.13
2018-06-15T13:03:32.968Z,6.47
2018-06-15T13:06:03.939Z,6.60
2018-06-15T13:08:35.412Z,5.97
2018-06-15T13:11:06.650Z,6.73
2018-06-15T13:13:37.497Z,6.30
2018-06-15T13:16:09.403Z,7.30
2018-06-15T13:18:40.596Z,6.23
2018-06-15T13:21:12.440Z,6.67
2018-06-15T13:23:44.627Z,6.50
2018-06-15T13:26:15.773Z,6.90
2018-06-15T13:28:46.755Z,6.10
2018-06-15T13:31:19.392Z,6.30
2018-06-15T13:33:50.519Z,6.37
2018-06-15T13:36:22.435Z,7.10
2018-06-15T13:38:53.630Z,5.93
2018-06-15T13:41:25.952Z,5.90
2018-06-15T13:43:57.298Z,6.57
2018-06-15T13:46:28.713Z,6.40
2018-06-15T13:48:59.691Z,6.47
2018-06-15T13:51:32.775Z,7.00
2018-06-15T13:54:04.062Z,6.30
2018-06-15T13:56:35.356Z,6.50
2018-06-15T13:59:06.326Z,6.37
2018-06-15T14:01:37.202Z,6.00
2018-06-15T14:04:08.377Z,6.90
2018-06-15T14:06:39.524Z,6.20
2018-06-15T14:09:11.272Z,6.70
2018-06-15T14:11:43.118Z,6.70
2018-06-15T14:14:14.137Z,6.43
2018-06-15T14:16:46.149Z,6.53
2018-06-15T14:19:17.246Z,6.13
2018-06-15T14:21:48.445Z,6.80
2018-06-15T14:24:19.439Z,6.20
2018-06-15T14:26:50.636Z,7.30
2018-06-15T14:29:22.509Z,7.40
2018-06-15T14:31:53.950Z,7.13
2018-06-15T14:34:25.169Z,6.97
2018-06-15T14:36:56.939Z,7.00
2018-06-15T14:39:28.167Z,6.93
2018-06-15T14:41:59.052Z,7.00
2018-06-15T14:44:30.414Z,7.20
2018-06-15T14:47:03.089Z,7.43
2018-06-15T14:49:34.202Z,7.37
2018-06-15T14:52:05.253Z,6.60
2018-06-15T14:54:36.417Z,6.53
2018-06-15T14:57:07.667Z,6.40
2018-06-15T14:59:39.590Z,6.70
2018-06-15T15:02:11.688Z,7.30
2018-06-15T15:04:42.816Z,6.50
2018-06-15T15:07:14.056Z,6.73
2018-06-15T15:09:45.191Z,6.63
2018-06-15T15:12:16.463Z,6.33
2018-06-15T15:14:48.485Z,6.37
2018-06-15T15:17:20.840Z,5.90
2018-06-15T15:19:51.961Z,6.13
2018-06-15T15:22:23.764Z,6.77
2018-06-15T15:24:55.039Z,5.50
2018-06-15T15:27:25.996Z,6.67
2018-06-15T15:29:58.315Z,6.80
2018-06-15T15:32:29.965Z,5.97
2018-06-15T15:35:01.102Z,6.43
2018-06-15T15:37:32.274Z,7.13
2018-06-15T15:40:03.486Z,6.20
2018-06-15T15:42:34.671Z,7.13
2018-06-15T15:45:05.828Z,6.63
2018-06-15T15:47:37.979Z,7.80
2018-06-15T15:50:09.080Z,7.50
2018-06-15T15:52:40.622Z,7.00
2018-06-15T15:55:12.073Z,6.90
2018-06-15T15:57:43.320Z,6.90
2018-06-15T16:00:14.476Z,8.30
2018-06-15T16:02:46.208Z,6.77
2018-06-15T16:05:17.525Z,7.03
2018-06-15T16:07:50.811Z,7.50
2018-06-15T16:10:23.203Z,7.63
2018-06-15T16:12:54.588Z,8.07
2018-06-15T16:15:26.045Z,7.20
2018-06-15T16:17:57.749Z,7.60
2018-06-15T16:20:28.873Z,7.60
2018-06-15T16:23:01.193Z,7.57
2018-06-15T16:25:32.387Z,7.20
2018-06-15T16:28:03.330Z,7.67
2018-06-15T16:30:34.590Z,8.03
2018-06-15T16:33:05.923Z,7.00
2018-06-15T16:35:37.059Z,7.10
2018-06-15T16:38:09.880Z,7.40
2018-06-15T16:40:41.064Z,7.27
2018-06-15T16:43:13.607Z,7.03
2018-06-15T16:45:44.745Z,6.80
2018-06-15T16:48:16.993Z,8.13
2018-06-15T16:50:48.057Z,7.60
2018-06-15T16:53:20.245Z,6.90
2018-06-15T16:55:51.393Z,7.33
2018-06-15T16:58:22.481Z,7.40
2018-06-15T17:00:53.817Z,8.03
2018-06-15T17:03:25.347Z,7.47
2018-06-15T17:05:56.517Z,8.23
2018-06-15T17:08:27.725Z,8.10
2018-06-15T17:10:59.220Z,7.60
2018-06-15T17:13:31.068Z,7.93
2018-06-15T17:16:02.702Z,8.63
2018-06-15T17:18:35.019Z,8.10
2018-06-15T17:21:06.292Z,8.63
2018-06-15T17:23:38.215Z,8.83
2018-06-15T17:26:10.757Z,7.60
2018-06-15T17:28:42.040Z,7.00
2018-06-15T17:31:13.535Z,7.37
2018-06-15T17:33:52.913Z,7.60
2018-06-15T17:36:23.951Z,7.83
2018-06-15T17:38:55.215Z,8.10
2018-06-15T17:41:26.344Z,8.43
2018-06-15T17:43:57.575Z,8.00
2018-06-15T17:46:28.499Z,8.60
2018-06-15T17:48:59.620Z,7.73
2018-06-15T17:51:31.867Z,12.17
2018-06-15T17:54:03.890Z,13.43
2018-06-15T17:56:35.586Z,12.10
2018-06-15T17:59:06.656Z,8.67
2018-06-15T18:01:37.731Z,10.27
2018-06-15T18:04:09.112Z,9.80
2018-06-15T18:06:40.168Z,11.80
2018-06-15T18:09:12.523Z,10.80
2018-06-15T18:11:43.976Z,10.80
2018-06-15T18:14:15.340Z,10.87
2018-06-15T18:16:47.240Z,9.30
2018-06-15T18:19:18.427Z,8.67
2018-06-15T18:21:54.989Z,8.93
2018-06-15T18:24:26.745Z,8.63
2018-06-15T18:26:58.857Z,9.00
2018-06-15T18:29:30.055Z,8.60
2018-06-15T18:32:01.177Z,13.57
2018-06-15T18:34:33.881Z,21.53
2018-06-15T18:37:05.234Z,22.53
2018-06-15T18:39:36.398Z,17.63
2018-06-15T18:42:07.845Z,10.67
2018-06-15T18:44:39.041Z,10.30
2018-06-15T18:47:10.347Z,9.27
2018-06-15T18:49:41.242Z,11.60
2018-06-15T18:52:12.392Z,10.17
2018-06-15T18:54:43.507Z,10.37
2018-06-15T18:57:14.458Z,11.00
2018-06-15T18:59:51.643Z,11.57
2018-06-15T19:02:22.951Z,11.00
2018-06-15T19:04:54.404Z,11.73
2018-06-15T19:07:26.482Z,11.20
2018-06-15T19:09:57.805Z,11.13
2018-06-15T19:12:31.053Z,11.13
2018-06-15T19:15:02.654Z,10.47
2018-06-15T19:17:33.744Z,9.20
2018-06-15T19:20:04.938Z,10.30
2018-06-15T19:22:37.917Z,10.57
2018-06-15T19:25:09.055Z,11.23
2018-06-15T19:27:40.165Z,10.80
2018-06-15T19:30:11.164Z,10.50
2018-06-15T19:32:43.276Z,9.50
2018-06-15T19:35:15.635Z,8.83
2018-06-15T19:37:47.428Z,9.60
2018-06-15T19:40:19.550Z,9.60
2018-06-15T19:42:50.700Z,8.47
2018-06-15T19:45:21.804Z,7.60
2018-06-15T19:47:53.196Z,7.60
2018-06-15T19:50:26.182Z,7.57
2018-06-15T19:52:57.302Z,6.90
2018-06-15T19:55:28.709Z,7.23
2018-06-15T19:58:00.147Z,7.90
2018-06-15T20:00:31.294Z,9.20
2018-06-15T20:03:02.618Z,8.57
2018-06-15T20:05:33.663Z,9.30
2018-06-15T20:08:05.231Z,8.87
2018-06-15T20:10:36.265Z,10.10
2018-06-15T20:13:07.396Z,8.70
2018-06-15T20:15:38.578Z,9.60
2018-06-15T20:18:09.871Z,9.20
2018-06-15T20:20:40.893Z,8.97
2018-06-15T20:23:12.914Z,8.10
2018-06-15T20:25:44.105Z,10.53
2018-06-15T20:28:16.066Z,10.57
2018-06-15T20:30:47.321Z,11.50
2018-06-15T20:33:18.771Z,9.80
2018-06-15T20:35:49.905Z,11.47
2018-06-15T20:38:20.917Z,11.60
2018-06-15T20:40:52.153Z,10.10
2018-06-15T20:43:23.260Z,11.53
2018-06-15T20:45:54.312Z,10.87
2018-06-15T20:48:25.566Z,10.33
2018-06-15T20:50:56.618Z,12.23
2018-06-15T20:53:28.581Z,11.80
2018-06-15T20:55:59.370Z,11.83
2018-06-15T20:58:31.567Z,13.03
2018-06-15T21:01:02.583Z,13.30
2018-06-15T21:03:33.911Z,13.70
2018-06-15T21:06:04.943Z,13.47
2018-06-15T21:08:35.995Z,13.87
2018-06-15T21:11:06.993Z,15.00
2018-06-15T21:13:38.867Z,12.47
2018-06-15T21:16:10.920Z,13.60
2018-06-15T21:18:42.240Z,13.80
2018-06-15T21:21:13.202Z,14.63
2018-06-15T21:23:44.386Z,14.27
2018-06-15T21:26:15.325Z,14.00
2018-06-15T21:28:46.355Z,14.00
2018-06-15T21:31:17.368Z,12.40
2018-06-15T21:33:48.276Z,11.90
2018-06-15T21:36:19.450Z,13.03
2018-06-15T21:38:51.143Z,11.33
2018-06-15T21:41:22.247Z,12.23
2018-06-15T21:43:53.757Z,12.73
2018-06-15T21:46:24.859Z,11.77
2018-06-15T21:48:55.912Z,11.90
2018-06-15T21:51:27.048Z,11.67
2018-06-15T21:53:58.935Z,11.60
2018-06-15T21:56:30.022Z,11.97
2018-06-15T21:59:01.925Z,12.20
2018-06-15T22:01:33.127Z,12.57
2018-06-15T22:04:04.306Z,13.57
2018-06-15T22:06:35.458Z,11.50
2018-06-15T22:09:09.643Z,12.00
2018-06-15T22:11:40.701Z,10.50
2018-06-15T22:14:12.377Z,11.93
2018-06-15T22:16:48.046Z,11.47
2018-06-15T22:19:20.646Z,11.87
2018-06-15T22:21:52.826Z,11.43
2018-06-15T22:24:25.286Z,11.63
2018-06-15T22:26:56.356Z,10.87
2018-06-15T22:29:27.305Z,12.70
2018-06-15T22:31:58.284Z,11.57
2018-06-15T22:34:30.105Z,11.13
2018-06-15T22:37:01.362Z,11.90
2018-06-15T22:39:33.041Z,10.13
2018-06-15T22:42:03.968Z,11.13
2018-06-15T22:44:34.856Z,10.90
2018-06-15T22:47:05.782Z,12.00
2018-06-15T22:49:36.951Z,10.40
2018-06-15T22:52:07.905Z,12.37
2018-06-15T22:54:39.983Z,11.47
2018-06-15T22:57:11.034Z,10.90
2018-06-15T22:59:42.885Z,12.00
2018-06-15T23:02:13.895Z,12.43
2018-06-15T23:04:45.090Z,12.20
2018-06-15T23:07:16.052Z,11.77
2018-06-15T23:09:47.788Z,11.83
2018-06-15T23:12:18.828Z,10.67
2018-06-15T23:14:49.909Z,9.07
2018-06-15T23:17:21.082Z,8.40
2018-06-15T23:19:52.887Z,7.30
2018-06-15T23:22:23.680Z,6.77
2018-06-15T23:24:55.198Z,6.67
2018-06-15T23:27:26.161Z,5.63
2018-06-15T23:29:58.180Z,6.10
2018-06-15T23:32:29.315Z,6.73
2018-06-15T23:35:00.383Z,5.80
2018-06-15T23:37:32.488Z,6.23
2018-06-15T23:40:04.638Z,5.67
2018-06-15T23:42:35.778Z,5.90
2018-06-15T23:45:06.765Z,5.30
2018-06-15T23:47:37.909Z,6.27
2018-06-15T23:50:09.139Z,7.27
2018-06-15T23:52:40.217Z,7.57
2018-06-15T23:55:12.293Z,8.40
2018-06-15T23:57:43.386Z,10.07
